aviador You're here:

CYPR Decoded Metar

PRINCE PUPERT in BC, CANADA
Report Time2018-07-23 11:00:00
UTC Time2018-07-23 11:23:03
Flight Rules lifr LIFR
Wind180° at 03 kt
W.Decomp.*RWY 13: 2.6 kt HW 1.4 kt RCW
W.Rank180° ranks 22
Current wind is below 180° avg. (5.6)
Visibility2414 m
Phenomena:Mist
Clouds:Overcast 003 Hf
Ceiling300 ft
Temp11°C (ISA -4)
Dew Point11°C (100% RH)
AAT10.2°C
QNH1024 hPa
Density Alt-535 ft
Elevation112 ft
Report Wrong Elevation
Raw Report
CYPR 231100Z AUTO 18003KT 130V200 1 1/2SM BR OVC003 11/11 A3025
RMK SLP247=

Extra information for CYPR:More info

Metar Taf Metar & Taf Last 4 Metars F.Rules Stats Wind Profile Meteogram Temp Stats Airport Information Weather charts Add Link Nearby VenuesMetar ALERT Operation Metar Decoded Social comments